19:58
Airports
Links
Donate
Help keep this website running!
PayPal
Bitcoin
METAR
CYXE 231900Z 19009KT 15SM FEW070 M09/M14 A2997 RMK AC1 AC TR SLP197
Current Weather Conditions at CYXE
VFR 19:00:00 23-02-18
Altimeter:29.97 hg
Temp:-9.0°c 16°f
Dew point:-14.0°cf
Wind:9 knots, 10.4 mph, 5 m/s, from 190°
Visibility:15.0 statute miles
7000(FEW) A few
Past METAR reports
VFR 18:00:00 23-02-18
Altimeter:30.01 hg
Temp:-12.0°c 10°f
Dew point:-13.0°cf
Wind:9 knots, 10.4 mph, 5 m/s, from 210°
Visibility:15.0 statute miles
6000(FEW) A few
CYXE 231800Z 21009KT 15SM FEW060 M12/M13 A3001 RMK SC1 SLP211
VFR 17:00:00 23-02-18
Altimeter:30.03 hg
Temp:-15.0°cf
Dew point:-17.0°cf
Wind:6 knots, 6.9 mph, 3 m/s, from 210°
Visibility:15.0 statute miles
1500(FEW) A few
CYXE 231700Z 21006KT 15SM FEW015 M15/M17 A3003 RMK SC1 SLP219
VFR 16:00:00 23-02-18
Altimeter:30.05 hg
Temp:-16.0°cf
Dew point:-18.0°c -0°f
Wind:8 knots, 9.2 mph, 4 m/s, from 200°
Visibility:15.0 statute miles
1500(FEW) A few
CYXE 231600Z 20008KT 15SM FEW015 M16/M18 A3005 RMK SC1 SLP226
VFR 15:00:00 23-02-18
Altimeter:30.07 hg
Temp:-18.0°c -0°f
Dew point:-21.0°c -6°f
Wind:8 knots, 9.2 mph, 4 m/s, from 200°
Visibility:15.0 statute miles
1200(FEW) A few
CYXE 231500Z 20008KT 15SM FEW012 M18/M21 A3007 RMK SC1 SLP236
VFR 14:00:00 23-02-18
Altimeter:30.08 hg
Temp:-20.0°c -4°f
Dew point:-23.0°c -9°f
Wind:10 knots, 11.5 mph, 5 m/s, from 190°
Visibility:15.0 statute miles
1200(FEW) A few
CYXE 231400Z 19010KT 15SM FEW012 M20/M23 A3008 RMK SC1 SLP239
TAF
TAF CYXE 231740Z 2318/2418 21008KT P6SM FEW015 BECMG 2319/2321 18015KT FM240400 20012KT P6SM FEW060 BKN180 FM240900 20012KT P6SM -SN BKN050 OVC150 FM241500 18006KT P6SM FEW050 BKN200 RMK NXT FCST BY 240000Z
Forecast at CYXE
18:00 23-02-18 to 19:00 23-02-18
Wind:8 Knots from 210°
Visibility:6.21 statute miles
1500FEW A few
BECMG 19:00 23-02-18 to 04:00 24-02-18
Wind:15 Knots from 180°
Visibility:6.21 statute miles
1500FEW A few
FM 04:00 24-02-18 to 09:00 24-02-18
Wind:12 Knots from 200°
Visibility:6.21 statute miles
6000FEW A few
18000BKN Broken
FM 09:00 24-02-18 to 15:00 24-02-18
-SN
Wind:12 Knots from 200°
Visibility:6.21 statute miles
5000BKN Broken
15000OVC Overcast
FM 15:00 24-02-18 to 18:00 24-02-18
Wind:6 Knots from 180°
Visibility:6.21 statute miles
5000FEW A few
20000BKN Broken